sensor_id;sensor_type;location;lat;lon;timestamp;P1;durP1;ratioP1;P2;durP2;ratioP2
2602;SDS011;1311;47.966;7.958;2023-03-15T00:00:04;4.10;;;3.17;;
2602;SDS011;1311;47.966;7.958;2023-03-15T00:02:34;2.23;;;2.03;;
2602;SDS011;1311;47.966;7.958;2023-03-15T00:05:00;3.10;;;2.10;;
2602;SDS011;1311;47.966;7.958;2023-03-15T00:07:28;2.00;;;1.80;;
2602;SDS011;1311;47.966;7.958;2023-03-15T00:09:55;3.10;;;2.20;;
2602;SDS011;1311;47.966;7.958;2023-03-15T00:12:22;2.10;;;1.90;;
2602;SDS011;1311;47.966;7.958;2023-03-15T00:14:49;1.90;;;1.80;;
2602;SDS011;1311;47.966;7.958;2023-03-15T00:17:17;1.90;;;1.80;;
2602;SDS011;1311;47.966;7.958;2023-03-15T00:19:46;2.83;;;1.70;;
2602;SDS011;1311;47.966;7.958;2023-03-15T00:22:13;3.30;;;2.00;;
2602;SDS011;1311;47.966;7.958;2023-03-15T00:24:40;2.13;;;1.93;;
2602;SDS011;1311;47.966;7.958;2023-03-15T00:27:07;2.20;;;2.00;;
2602;SDS011;1311;47.966;7.958;2023-03-15T00:29:33;2.20;;;1.97;;
2602;SDS011;1311;47.966;7.958;2023-03-15T00:32:00;2.97;;;1.90;;
2602;SDS011;1311;47.966;7.958;2023-03-15T00:34:28;2.10;;;1.90;;
2602;SDS011;1311;47.966;7.958;2023-03-15T00:36:57;2.63;;;1.70;;
2602;SDS011;1311;47.966;7.958;2023-03-15T00:39:24;2.27;;;2.07;;
2602;SDS011;1311;47.966;7.958;2023-03-15T00:41:51;2.00;;;1.90;;
2602;SDS011;1311;47.966;7.958;2023-03-15T00:44:20;2.50;;;2.10;;
2602;SDS011;1311;47.966;7.958;2023-03-15T00:46:47;1.70;;;1.60;;
2602;SDS011;1311;47.966;7.958;2023-03-15T00:49:14;3.33;;;2.30;;
2602;SDS011;1311;47.966;7.958;2023-03-15T00:51:42;2.80;;;2.23;;
2602;SDS011;1311;47.966;7.958;2023-03-15T00:54:09;2.87;;;2.00;;
2602;SDS011;1311;47.966;7.958;2023-03-15T00:56:38;3.97;;;2.33;;
2602;SDS011;1311;47.966;7.958;2023-03-15T00:59:05;2.40;;;1.80;;
2602;SDS011;1311;47.966;7.958;2023-03-15T01:01:32;4.30;;;2.17;;
2602;SDS011;1311;47.966;7.958;2023-03-15T01:03:59;3.03;;;1.73;;
2602;SDS011;1311;47.966;7.958;2023-03-15T01:06:26;4.33;;;2.00;;
2602;SDS011;1311;47.966;7.958;2023-03-15T01:08:55;2.87;;;2.00;;
2602;SDS011;1311;47.966;7.958;2023-03-15T01:11:23;2.73;;;2.07;;
2602;SDS011;1311;47.966;7.958;2023-03-15T01:13:52;5.30;;;2.20;;
2602;SDS011;1311;47.966;7.958;2023-03-15T01:16:20;2.53;;;2.00;;
2602;SDS011;1311;47.966;7.958;2023-03-15T01:18:47;3.83;;;2.00;;
2602;SDS011;1311;47.966;7.958;2023-03-15T01:21:15;2.73;;;1.90;;
2602;SDS011;1311;47.966;7.958;2023-03-15T01:23:42;1.70;;;1.50;;
2602;SDS011;1311;47.966;7.958;2023-03-15T01:26:11;1.60;;;1.50;;
2602;SDS011;1311;47.966;7.958;2023-03-15T01:28:39;1.90;;;1.70;;
2602;SDS011;1311;47.966;7.958;2023-03-15T01:31:06;2.60;;;1.73;;
2602;SDS011;1311;47.966;7.958;2023-03-15T01:33:39;2.67;;;1.83;;
2602;SDS011;1311;47.966;7.958;2023-03-15T01:36:06;1.90;;;1.80;;
2602;SDS011;1311;47.966;7.958;2023-03-15T01:38:33;4.20;;;1.70;;
2602;SDS011;1311;47.966;7.958;2023-03-15T01:41:00;1.43;;;1.33;;
2602;SDS011;1311;47.966;7.958;2023-03-15T01:43:29;2.03;;;1.87;;
2602;SDS011;1311;47.966;7.958;2023-03-15T01:48:59;2.40;;;1.87;;
2602;SDS011;1311;47.966;7.958;2023-03-15T01:51:32;2.03;;;1.80;;
2602;SDS011;1311;47.966;7.958;2023-03-15T01:54:03;2.57;;;2.00;;
2602;SDS011;1311;47.966;7.958;2023-03-15T01:56:32;5.23;;;2.30;;
2602;SDS011;1311;47.966;7.958;2023-03-15T01:59:04;1.73;;;1.53;;
2602;SDS011;1311;47.966;7.958;2023-03-15T02:01:33;2.20;;;2.00;;
2602;SDS011;1311;47.966;7.958;2023-03-15T02:04:02;2.23;;;2.03;;
2602;SDS011;1311;47.966;7.958;2023-03-15T02:06:32;3.70;;;2.30;;
2602;SDS011;1311;47.966;7.958;2023-03-15T02:09:01;2.50;;;1.90;;
2602;SDS011;1311;47.966;7.958;2023-03-15T02:11:31;1.97;;;1.77;;
2602;SDS011;1311;47.966;7.958;2023-03-15T02:13:59;3.50;;;2.03;;
2602;SDS011;1311;47.966;7.958;2023-03-15T02:16:29;2.87;;;1.60;;
2602;SDS011;1311;47.966;7.958;2023-03-15T02:18:56;4.60;;;2.10;;
2602;SDS011;1311;47.966;7.958;2023-03-15T02:21:27;3.00;;;1.80;;
2602;SDS011;1311;47.966;7.958;2023-03-15T02:24:07;2.00;;;1.90;;
2602;SDS011;1311;47.966;7.958;2023-03-15T02:26:44;3.80;;;1.73;;
2602;SDS011;1311;47.966;7.958;2023-03-15T02:29:16;1.90;;;1.70;;
2602;SDS011;1311;47.966;7.958;2023-03-15T02:31:43;3.87;;;2.00;;
2602;SDS011;1311;47.966;7.958;2023-03-15T02:34:10;3.47;;;1.83;;
2602;SDS011;1311;47.966;7.958;2023-03-15T02:36:37;2.03;;;1.83;;
2602;SDS011;1311;47.966;7.958;2023-03-15T02:39:12;1.80;;;1.70;;
2602;SDS011;1311;47.966;7.958;2023-03-15T02:41:41;2.57;;;2.30;;
2602;SDS011;1311;47.966;7.958;2023-03-15T02:44:10;2.30;;;1.80;;
2602;SDS011;1311;47.966;7.958;2023-03-15T02:46:42;2.03;;;1.50;;
2602;SDS011;1311;47.966;7.958;2023-03-15T02:49:11;1.87;;;1.70;;
2602;SDS011;1311;47.966;7.958;2023-03-15T02:51:38;2.63;;;1.73;;
2602;SDS011;1311;47.966;7.958;2023-03-15T02:54:05;4.67;;;1.50;;
2602;SDS011;1311;47.966;7.958;2023-03-15T02:56:32;2.77;;;1.80;;
2602;SDS011;1311;47.966;7.958;2023-03-15T02:58:59;2.80;;;1.70;;
2602;SDS011;1311;47.966;7.958;2023-03-15T03:01:26;3.23;;;1.70;;
2602;SDS011;1311;47.966;7.958;2023-03-15T03:03:54;2.00;;;1.60;;
2602;SDS011;1311;47.966;7.958;2023-03-15T03:06:20;2.07;;;1.87;;
2602;SDS011;1311;47.966;7.958;2023-03-15T03:08:47;3.47;;;2.10;;
2602;SDS011;1311;47.966;7.958;2023-03-15T03:11:14;1.97;;;1.70;;
2602;SDS011;1311;47.966;7.958;2023-03-15T03:13:41;2.33;;;2.13;;
2602;SDS011;1311;47.966;7.958;2023-03-15T03:16:09;2.47;;;2.00;;
2602;SDS011;1311;47.966;7.958;2023-03-15T03:18:36;2.73;;;2.03;;
2602;SDS011;1311;47.966;7.958;2023-03-15T03:21:05;2.60;;;2.30;;
2602;SDS011;1311;47.966;7.958;2023-03-15T03:23:32;2.47;;;2.27;;
2602;SDS011;1311;47.966;7.958;2023-03-15T03:26:00;3.37;;;2.90;;
2602;SDS011;1311;47.966;7.958;2023-03-15T03:28:29;7.53;;;3.53;;
2602;SDS011;1311;47.966;7.958;2023-03-15T03:30:57;5.77;;;2.90;;
2602;SDS011;1311;47.966;7.958;2023-03-15T03:33:24;3.67;;;2.70;;
2602;SDS011;1311;47.966;7.958;2023-03-15T03:35:51;4.20;;;3.50;;
2602;SDS011;1311;47.966;7.958;2023-03-15T03:38:20;6.37;;;3.70;;
2602;SDS011;1311;47.966;7.958;2023-03-15T03:40:47;5.30;;;3.53;;
2602;SDS011;1311;47.966;7.958;2023-03-15T03:43:13;5.30;;;3.67;;
2602;SDS011;1311;47.966;7.958;2023-03-15T03:45:40;6.43;;;3.70;;
2602;SDS011;1311;47.966;7.958;2023-03-15T03:48:07;3.60;;;2.70;;
2602;SDS011;1311;47.966;7.958;2023-03-15T03:50:34;4.83;;;3.37;;
2602;SDS011;1311;47.966;7.958;2023-03-15T03:53:00;5.20;;;3.33;;
2602;SDS011;1311;47.966;7.958;2023-03-15T03:55:28;3.90;;;3.17;;
2602;SDS011;1311;47.966;7.958;2023-03-15T03:57:58;4.73;;;3.53;;
2602;SDS011;1311;47.966;7.958;2023-03-15T04:00:24;4.10;;;3.10;;
2602;SDS011;1311;47.966;7.958;2023-03-15T04:02:51;5.30;;;3.60;;
2602;SDS011;1311;47.966;7.958;2023-03-15T04:05:19;4.60;;;4.10;;
2602;SDS011;1311;47.966;7.958;2023-03-15T04:07:45;5.33;;;3.33;;
2602;SDS011;1311;47.966;7.958;2023-03-15T04:10:12;4.47;;;3.20;;
2602;SDS011;1311;47.966;7.958;2023-03-15T04:12:41;5.83;;;3.87;;
2602;SDS011;1311;47.966;7.958;2023-03-15T04:15:08;6.57;;;3.47;;
2602;SDS011;1311;47.966;7.958;2023-03-15T04:17:35;4.53;;;3.20;;
2602;SDS011;1311;47.966;7.958;2023-03-15T04:20:02;5.50;;;2.80;;
2602;SDS011;1311;47.966;7.958;2023-03-15T04:22:31;4.47;;;3.57;;
2602;SDS011;1311;47.966;7.958;2023-03-15T04:24:59;4.33;;;3.40;;
2602;SDS011;1311;47.966;7.958;2023-03-15T04:27:27;4.93;;;2.70;;
2602;SDS011;1311;47.966;7.958;2023-03-15T04:29:55;4.83;;;3.73;;
2602;SDS011;1311;47.966;7.958;2023-03-15T04:32:22;3.50;;;2.93;;
2602;SDS011;1311;47.966;7.958;2023-03-15T04:34:49;3.40;;;2.60;;
2602;SDS011;1311;47.966;7.958;2023-03-15T04:37:16;3.83;;;3.47;;
2602;SDS011;1311;47.966;7.958;2023-03-15T04:39:43;3.33;;;2.60;;
2602;SDS011;1311;47.966;7.958;2023-03-15T04:42:09;4.77;;;3.27;;
2602;SDS011;1311;47.966;7.958;2023-03-15T04:44:36;4.80;;;3.10;;
2602;SDS011;1311;47.966;7.958;2023-03-15T04:47:04;4.47;;;2.50;;
2602;SDS011;1311;47.966;7.958;2023-03-15T04:51:59;6.80;;;2.10;;
2602;SDS011;1311;47.966;7.958;2023-03-15T04:54:26;2.63;;;1.80;;
2602;SDS011;1311;47.966;7.958;2023-03-15T04:56:53;3.07;;;2.03;;
2602;SDS011;1311;47.966;7.958;2023-03-15T04:59:20;2.27;;;2.07;;
2602;SDS011;1311;47.966;7.958;2023-03-15T05:01:47;6.23;;;2.57;;
2602;SDS011;1311;47.966;7.958;2023-03-15T05:04:15;3.00;;;2.20;;
2602;SDS011;1311;47.966;7.958;2023-03-15T05:06:42;7.07;;;3.23;;
2602;SDS011;1311;47.966;7.958;2023-03-15T05:09:08;3.37;;;2.27;;
2602;SDS011;1311;47.966;7.958;2023-03-15T05:11:43;4.67;;;2.60;;
2602;SDS011;1311;47.966;7.958;2023-03-15T05:14:10;2.53;;;2.33;;
2602;SDS011;1311;47.966;7.958;2023-03-15T05:16:37;3.90;;;2.90;;
2602;SDS011;1311;47.966;7.958;2023-03-15T05:19:03;2.40;;;2.20;;
2602;SDS011;1311;47.966;7.958;2023-03-15T05:21:32;2.17;;;1.97;;
2602;SDS011;1311;47.966;7.958;2023-03-15T05:23:58;10.30;;;3.10;;
2602;SDS011;1311;47.966;7.958;2023-03-15T05:26:25;2.70;;;2.23;;
2602;SDS011;1311;47.966;7.958;2023-03-15T05:28:52;3.30;;;2.30;;
2602;SDS011;1311;47.966;7.958;2023-03-15T05:31:18;4.53;;;2.27;;
2602;SDS011;1311;47.966;7.958;2023-03-15T05:33:45;3.27;;;2.23;;
2602;SDS011;1311;47.966;7.958;2023-03-15T05:36:12;2.73;;;2.20;;
2602;SDS011;1311;47.966;7.958;2023-03-15T05:38:42;3.20;;;2.90;;
2602;SDS011;1311;47.966;7.958;2023-03-15T05:41:09;3.83;;;3.13;;
2602;SDS011;1311;47.966;7.958;2023-03-15T05:43:36;5.43;;;3.37;;
2602;SDS011;1311;47.966;7.958;2023-03-15T05:46:03;3.33;;;2.83;;
2602;SDS011;1311;47.966;7.958;2023-03-15T05:48:29;5.90;;;3.10;;
2602;SDS011;1311;47.966;7.958;2023-03-15T05:50:56;7.37;;;3.73;;
2602;SDS011;1311;47.966;7.958;2023-03-15T05:53:23;4.97;;;3.60;;
2602;SDS011;1311;47.966;7.958;2023-03-15T05:55:51;7.53;;;4.10;;
2602;SDS011;1311;47.966;7.958;2023-03-15T05:58:18;30.77;;;13.80;;
2602;SDS011;1311;47.966;7.958;2023-03-15T06:00:45;84.17;;;33.33;;
2602;SDS011;1311;47.966;7.958;2023-03-15T06:03:13;41.43;;;18.00;;
2602;SDS011;1311;47.966;7.958;2023-03-15T06:05:39;15.10;;;8.40;;
2602;SDS011;1311;47.966;7.958;2023-03-15T06:08:06;6.73;;;4.83;;
2602;SDS011;1311;47.966;7.958;2023-03-15T06:10:33;6.80;;;4.60;;
2602;SDS011;1311;47.966;7.958;2023-03-15T06:13:01;6.47;;;4.10;;
2602;SDS011;1311;47.966;7.958;2023-03-15T06:15:28;14.93;;;6.63;;
2602;SDS011;1311;47.966;7.958;2023-03-15T06:17:55;7.43;;;3.90;;
2602;SDS011;1311;47.966;7.958;2023-03-15T06:20:21;9.60;;;3.83;;
2602;SDS011;1311;47.966;7.958;2023-03-15T06:22:48;6.70;;;2.83;;
2602;SDS011;1311;47.966;7.958;2023-03-15T06:25:15;2.90;;;2.50;;
2602;SDS011;1311;47.966;7.958;2023-03-15T06:27:42;5.00;;;3.63;;
2602;SDS011;1311;47.966;7.958;2023-03-15T06:30:10;3.73;;;2.50;;
2602;SDS011;1311;47.966;7.958;2023-03-15T06:32:37;4.80;;;4.00;;
2602;SDS011;1311;47.966;7.958;2023-03-15T06:35:04;6.90;;;4.10;;
2602;SDS011;1311;47.966;7.958;2023-03-15T06:37:33;5.27;;;4.50;;
2602;SDS011;1311;47.966;7.958;2023-03-15T06:40:00;11.50;;;4.47;;
2602;SDS011;1311;47.966;7.958;2023-03-15T06:42:28;10.23;;;5.17;;
2602;SDS011;1311;47.966;7.958;2023-03-15T06:44:55;5.07;;;4.03;;
2602;SDS011;1311;47.966;7.958;2023-03-15T06:47:24;6.33;;;4.50;;
2602;SDS011;1311;47.966;7.958;2023-03-15T06:49:50;7.23;;;3.97;;
2602;SDS011;1311;47.966;7.958;2023-03-15T06:52:17;5.23;;;3.90;;
2602;SDS011;1311;47.966;7.958;2023-03-15T06:54:44;3.63;;;2.90;;
2602;SDS011;1311;47.966;7.958;2023-03-15T06:57:11;4.03;;;3.43;;
2602;SDS011;1311;47.966;7.958;2023-03-15T06:59:38;4.90;;;3.70;;
2602;SDS011;1311;47.966;7.958;2023-03-15T07:02:05;4.60;;;3.20;;
2602;SDS011;1311;47.966;7.958;2023-03-15T07:04:33;5.17;;;3.60;;
2602;SDS011;1311;47.966;7.958;2023-03-15T07:07:00;3.40;;;2.80;;
2602;SDS011;1311;47.966;7.958;2023-03-15T07:09:26;3.90;;;2.77;;
2602;SDS011;1311;47.966;7.958;2023-03-15T07:11:53;5.50;;;2.30;;
2602;SDS011;1311;47.966;7.958;2023-03-15T07:14:20;3.13;;;2.10;;
2602;SDS011;1311;47.966;7.958;2023-03-15T07:16:47;2.50;;;1.77;;
2602;SDS011;1311;47.966;7.958;2023-03-15T07:19:14;4.50;;;2.50;;
2602;SDS011;1311;47.966;7.958;2023-03-15T07:21:42;9.50;;;3.70;;
2602;SDS011;1311;47.966;7.958;2023-03-15T07:24:09;3.87;;;3.20;;
2602;SDS011;1311;47.966;7.958;2023-03-15T07:26:35;4.27;;;2.63;;
2602;SDS011;1311;47.966;7.958;2023-03-15T07:29:02;7.80;;;2.93;;
2602;SDS011;1311;47.966;7.958;2023-03-15T07:31:29;3.40;;;2.90;;
2602;SDS011;1311;47.966;7.958;2023-03-15T07:33:55;2.57;;;2.00;;
2602;SDS011;1311;47.966;7.958;2023-03-15T07:36:22;8.33;;;3.37;;
2602;SDS011;1311;47.966;7.958;2023-03-15T07:38:50;3.20;;;2.60;;
2602;SDS011;1311;47.966;7.958;2023-03-15T07:41:17;7.47;;;3.30;;
2602;SDS011;1311;47.966;7.958;2023-03-15T07:43:44;3.13;;;2.40;;
2602;SDS011;1311;47.966;7.958;2023-03-15T07:46:11;8.83;;;2.80;;
2602;SDS011;1311;47.966;7.958;2023-03-15T07:48:38;5.00;;;3.00;;
2602;SDS011;1311;47.966;7.958;2023-03-15T07:51:06;4.23;;;2.77;;
2602;SDS011;1311;47.966;7.958;2023-03-15T07:53:33;2.97;;;2.37;;
2602;SDS011;1311;47.966;7.958;2023-03-15T07:56:01;6.87;;;2.70;;
2602;SDS011;1311;47.966;7.958;2023-03-15T07:58:28;9.53;;;2.43;;
2602;SDS011;1311;47.966;7.958;2023-03-15T08:00:55;3.90;;;2.30;;
2602;SDS011;1311;47.966;7.958;2023-03-15T08:03:22;3.70;;;1.97;;
2602;SDS011;1311;47.966;7.958;2023-03-15T08:05:50;2.83;;;1.60;;
2602;SDS011;1311;47.966;7.958;2023-03-15T08:08:17;2.23;;;1.47;;
2602;SDS011;1311;47.966;7.958;2023-03-15T08:10:44;2.17;;;1.87;;
2602;SDS011;1311;47.966;7.958;2023-03-15T08:13:13;6.57;;;1.57;;
2602;SDS011;1311;47.966;7.958;2023-03-15T08:15:40;3.03;;;1.73;;
2602;SDS011;1311;47.966;7.958;2023-03-15T08:18:10;2.37;;;1.50;;
2602;SDS011;1311;47.966;7.958;2023-03-15T08:20:36;2.73;;;1.43;;
2602;SDS011;1311;47.966;7.958;2023-03-15T08:23:03;1.30;;;1.20;;
2602;SDS011;1311;47.966;7.958;2023-03-15T08:25:30;3.33;;;1.90;;
2602;SDS011;1311;47.966;7.958;2023-03-15T08:27:57;1.20;;;1.10;;
2602;SDS011;1311;47.966;7.958;2023-03-15T08:30:27;1.97;;;1.30;;
2602;SDS011;1311;47.966;7.958;2023-03-15T08:32:54;1.17;;;1.10;;
2602;SDS011;1311;47.966;7.958;2023-03-15T08:35:21;1.27;;;1.17;;
2602;SDS011;1311;47.966;7.958;2023-03-15T08:37:49;1.83;;;1.40;;
2602;SDS011;1311;47.966;7.958;2023-03-15T08:40:17;3.87;;;1.60;;
2602;SDS011;1311;47.966;7.958;2023-03-15T08:42:48;1.37;;;1.27;;
2602;SDS011;1311;47.966;7.958;2023-03-15T08:45:16;2.70;;;1.50;;
2602;SDS011;1311;47.966;7.958;2023-03-15T08:47:44;1.90;;;0.90;;
2602;SDS011;1311;47.966;7.958;2023-03-15T08:50:11;1.57;;;1.47;;
2602;SDS011;1311;47.966;7.958;2023-03-15T08:52:39;2.13;;;1.27;;
2602;SDS011;1311;47.966;7.958;2023-03-15T08:55:07;1.60;;;1.20;;
2602;SDS011;1311;47.966;7.958;2023-03-15T08:57:34;2.13;;;1.30;;
2602;SDS011;1311;47.966;7.958;2023-03-15T09:00:03;1.70;;;1.30;;
2602;SDS011;1311;47.966;7.958;2023-03-15T09:02:33;2.93;;;1.10;;
2602;SDS011;1311;47.966;7.958;2023-03-15T09:05:01;2.47;;;1.10;;
2602;SDS011;1311;47.966;7.958;2023-03-15T09:07:31;1.80;;;1.00;;
2602;SDS011;1311;47.966;7.958;2023-03-15T09:09:57;3.60;;;1.33;;
2602;SDS011;1311;47.966;7.958;2023-03-15T09:12:24;2.33;;;0.90;;
2602;SDS011;1311;47.966;7.958;2023-03-15T09:14:52;1.23;;;0.97;;
2602;SDS011;1311;47.966;7.958;2023-03-15T09:17:19;2.33;;;1.57;;
2602;SDS011;1311;47.966;7.958;2023-03-15T09:19:46;2.27;;;1.20;;
2602;SDS011;1311;47.966;7.958;2023-03-15T09:22:14;1.47;;;1.10;;
2602;SDS011;1311;47.966;7.958;2023-03-15T09:24:41;2.40;;;1.20;;
2602;SDS011;1311;47.966;7.958;2023-03-15T09:27:08;1.30;;;0.90;;
2602;SDS011;1311;47.966;7.958;2023-03-15T09:29:35;1.27;;;0.90;;
2602;SDS011;1311;47.966;7.958;2023-03-15T09:32:02;2.87;;;0.90;;
2602;SDS011;1311;47.966;7.958;2023-03-15T09:34:30;2.20;;;0.80;;
2602;SDS011;1311;47.966;7.958;2023-03-15T09:36:57;2.20;;;0.90;;
2602;SDS011;1311;47.966;7.958;2023-03-15T09:39:25;1.13;;;0.77;;
2602;SDS011;1311;47.966;7.958;2023-03-15T09:41:52;0.87;;;0.80;;
2602;SDS011;1311;47.966;7.958;2023-03-15T09:44:31;0.93;;;0.83;;
2602;SDS011;1311;47.966;7.958;2023-03-15T09:47:15;1.00;;;0.83;;
2602;SDS011;1311;47.966;7.958;2023-03-15T09:49:48;4.60;;;0.93;;
2602;SDS011;1311;47.966;7.958;2023-03-15T09:52:25;1.20;;;1.00;;
2602;SDS011;1311;47.966;7.958;2023-03-15T09:55:00;0.70;;;0.63;;
2602;SDS011;1311;47.966;7.958;2023-03-15T09:57:34;0.80;;;0.73;;
2602;SDS011;1311;47.966;7.958;2023-03-15T10:00:06;0.70;;;0.70;;
2602;SDS011;1311;47.966;7.958;2023-03-15T10:02:41;2.40;;;0.90;;
2602;SDS011;1311;47.966;7.958;2023-03-15T10:05:14;2.40;;;0.70;;
2602;SDS011;1311;47.966;7.958;2023-03-15T10:07:45;1.07;;;0.80;;
2602;SDS011;1311;47.966;7.958;2023-03-15T10:10:20;1.70;;;0.70;;
2602;SDS011;1311;47.966;7.958;2023-03-15T10:12:55;1.10;;;0.83;;
2602;SDS011;1311;47.966;7.958;2023-03-15T10:15:35;1.33;;;0.53;;
2602;SDS011;1311;47.966;7.958;2023-03-15T10:18:15;1.83;;;0.60;;
2602;SDS011;1311;47.966;7.958;2023-03-15T10:20:53;1.40;;;0.50;;
2602;SDS011;1311;47.966;7.958;2023-03-15T10:23:27;0.60;;;0.50;;
2602;SDS011;1311;47.966;7.958;2023-03-15T10:26:03;0.93;;;0.70;;
2602;SDS011;1311;47.966;7.958;2023-03-15T10:28:32;1.00;;;0.70;;
2602;SDS011;1311;47.966;7.958;2023-03-15T10:31:06;0.50;;;0.50;;
2602;SDS011;1311;47.966;7.958;2023-03-15T10:33:38;0.80;;;0.50;;
2602;SDS011;1311;47.966;7.958;2023-03-15T10:36:11;0.53;;;0.50;;
2602;SDS011;1311;47.966;7.958;2023-03-15T10:38:41;1.17;;;0.43;;
2602;SDS011;1311;47.966;7.958;2023-03-15T10:41:12;0.83;;;0.40;;
2602;SDS011;1311;47.966;7.958;2023-03-15T10:43:43;1.27;;;0.50;;
2602;SDS011;1311;47.966;7.958;2023-03-15T10:46:23;1.27;;;0.53;;
2602;SDS011;1311;47.966;7.958;2023-03-15T10:48:52;1.70;;;0.57;;
2602;SDS011;1311;47.966;7.958;2023-03-15T10:51:23;1.80;;;0.40;;
2602;SDS011;1311;47.966;7.958;2023-03-15T10:53:53;1.67;;;0.60;;
2602;SDS011;1311;47.966;7.958;2023-03-15T10:56:24;1.53;;;0.50;;
2602;SDS011;1311;47.966;7.958;2023-03-15T10:58:53;0.60;;;0.40;;
2602;SDS011;1311;47.966;7.958;2023-03-15T11:01:21;0.93;;;0.60;;
2602;SDS011;1311;47.966;7.958;2023-03-15T11:03:59;2.00;;;0.80;;
2602;SDS011;1311;47.966;7.958;2023-03-15T11:06:27;0.90;;;0.50;;
2602;SDS011;1311;47.966;7.958;2023-03-15T11:09:06;0.70;;;0.50;;
2602;SDS011;1311;47.966;7.958;2023-03-15T11:11:48;1.00;;;0.60;;
2602;SDS011;1311;47.966;7.958;2023-03-15T11:14:22;1.00;;;0.60;;
2602;SDS011;1311;47.966;7.958;2023-03-15T11:16:50;0.90;;;0.60;;
2602;SDS011;1311;47.966;7.958;2023-03-15T11:19:19;0.73;;;0.40;;
2602;SDS011;1311;47.966;7.958;2023-03-15T11:21:49;0.70;;;0.50;;
2602;SDS011;1311;47.966;7.958;2023-03-15T11:24:19;0.80;;;0.80;;
2602;SDS011;1311;47.966;7.958;2023-03-15T11:26:50;0.50;;;0.50;;
2602;SDS011;1311;47.966;7.958;2023-03-15T11:29:20;1.67;;;0.80;;
2602;SDS011;1311;47.966;7.958;2023-03-15T11:31:50;0.60;;;0.60;;
2602;SDS011;1311;47.966;7.958;2023-03-15T11:34:21;2.00;;;0.73;;
2602;SDS011;1311;47.966;7.958;2023-03-15T11:36:53;3.00;;;0.90;;
2602;SDS011;1311;47.966;7.958;2023-03-15T11:39:25;1.03;;;0.50;;
2602;SDS011;1311;47.966;7.958;2023-03-15T11:42:01;3.23;;;0.77;;
2602;SDS011;1311;47.966;7.958;2023-03-15T11:44:36;0.60;;;0.57;;
2602;SDS011;1311;47.966;7.958;2023-03-15T11:47:07;0.50;;;0.50;;
2602;SDS011;1311;47.966;7.958;2023-03-15T11:49:41;0.80;;;0.70;;
2602;SDS011;1311;47.966;7.958;2023-03-15T11:52:13;0.73;;;0.63;;
2602;SDS011;1311;47.966;7.958;2023-03-15T11:54:41;0.53;;;0.50;;
2602;SDS011;1311;47.966;7.958;2023-03-15T12:00:19;1.17;;;0.50;;
2602;SDS011;1311;47.966;7.958;2023-03-15T12:06:04;1.10;;;0.60;;
2602;SDS011;1311;47.966;7.958;2023-03-15T12:08:39;0.87;;;0.60;;
2602;SDS011;1311;47.966;7.958;2023-03-15T12:11:09;1.97;;;0.70;;
2602;SDS011;1311;47.966;7.958;2023-03-15T12:13:42;0.50;;;0.40;;
2602;SDS011;1311;47.966;7.958;2023-03-15T12:16:19;1.33;;;0.63;;
2602;SDS011;1311;47.966;7.958;2023-03-15T12:18:47;0.93;;;0.80;;
2602;SDS011;1311;47.966;7.958;2023-03-15T12:21:16;0.87;;;0.80;;
2602;SDS011;1311;47.966;7.958;2023-03-15T12:23:47;2.03;;;1.20;;
2602;SDS011;1311;47.966;7.958;2023-03-15T12:26:24;1.33;;;0.97;;
2602;SDS011;1311;47.966;7.958;2023-03-15T12:29:06;7.00;;;0.90;;
2602;SDS011;1311;47.966;7.958;2023-03-15T12:31:45;1.27;;;1.00;;
2602;SDS011;1311;47.966;7.958;2023-03-15T12:34:21;1.37;;;0.80;;
2602;SDS011;1311;47.966;7.958;2023-03-15T12:36:52;2.00;;;1.03;;
2602;SDS011;1311;47.966;7.958;2023-03-15T12:39:35;0.63;;;0.60;;
2602;SDS011;1311;47.966;7.958;2023-03-15T12:42:13;1.10;;;0.80;;
2602;SDS011;1311;47.966;7.958;2023-03-15T12:45:34;0.87;;;0.67;;
2602;SDS011;1311;47.966;7.958;2023-03-15T12:51:07;1.60;;;0.80;;
2602;SDS011;1311;47.966;7.958;2023-03-15T12:53:43;1.80;;;0.90;;
2602;SDS011;1311;47.966;7.958;2023-03-15T12:58:59;1.13;;;0.83;;
2602;SDS011;1311;47.966;7.958;2023-03-15T13:01:38;1.07;;;0.70;;
2602;SDS011;1311;47.966;7.958;2023-03-15T13:04:07;2.10;;;0.83;;
2602;SDS011;1311;47.966;7.958;2023-03-15T13:06:40;1.43;;;0.67;;
2602;SDS011;1311;47.966;7.958;2023-03-15T13:09:18;1.00;;;0.87;;
2602;SDS011;1311;47.966;7.958;2023-03-15T13:11:58;0.77;;;0.60;;
2602;SDS011;1311;47.966;7.958;2023-03-15T13:14:35;0.70;;;0.60;;
2602;SDS011;1311;47.966;7.958;2023-03-15T13:17:11;0.57;;;0.57;;
2602;SDS011;1311;47.966;7.958;2023-03-15T13:19:49;1.13;;;0.83;;
2602;SDS011;1311;47.966;7.958;2023-03-15T13:22:22;1.17;;;0.70;;
2602;SDS011;1311;47.966;7.958;2023-03-15T13:24:55;1.00;;;0.63;;
2602;SDS011;1311;47.966;7.958;2023-03-15T13:27:36;4.23;;;1.07;;
2602;SDS011;1311;47.966;7.958;2023-03-15T13:30:30;0.90;;;0.60;;
2602;SDS011;1311;47.966;7.958;2023-03-15T13:33:10;1.77;;;0.77;;
2602;SDS011;1311;47.966;7.958;2023-03-15T13:35:44;3.73;;;0.87;;
2602;SDS011;1311;47.966;7.958;2023-03-15T13:38:20;1.73;;;0.80;;
2602;SDS011;1311;47.966;7.958;2023-03-15T13:40:50;0.90;;;0.63;;
2602;SDS011;1311;47.966;7.958;2023-03-15T13:43:17;1.63;;;0.80;;
2602;SDS011;1311;47.966;7.958;2023-03-15T13:45:44;0.90;;;0.80;;
2602;SDS011;1311;47.966;7.958;2023-03-15T13:48:12;1.10;;;0.70;;
2602;SDS011;1311;47.966;7.958;2023-03-15T13:50:39;1.17;;;0.60;;
2602;SDS011;1311;47.966;7.958;2023-03-15T13:53:06;1.37;;;0.83;;
2602;SDS011;1311;47.966;7.958;2023-03-15T13:55:37;1.00;;;0.90;;
2602;SDS011;1311;47.966;7.958;2023-03-15T13:58:04;1.03;;;0.70;;
2602;SDS011;1311;47.966;7.958;2023-03-15T14:00:33;0.93;;;0.70;;
2602;SDS011;1311;47.966;7.958;2023-03-15T14:03:01;0.97;;;0.70;;
2602;SDS011;1311;47.966;7.958;2023-03-15T14:05:32;0.90;;;0.60;;
2602;SDS011;1311;47.966;7.958;2023-03-15T14:08:13;1.17;;;0.60;;
2602;SDS011;1311;47.966;7.958;2023-03-15T14:10:56;0.90;;;0.73;;
2602;SDS011;1311;47.966;7.958;2023-03-15T14:13:26;1.50;;;0.80;;
2602;SDS011;1311;47.966;7.958;2023-03-15T14:15:56;1.10;;;0.77;;
2602;SDS011;1311;47.966;7.958;2023-03-15T14:18:28;1.30;;;0.60;;
2602;SDS011;1311;47.966;7.958;2023-03-15T14:20:59;0.80;;;0.63;;
2602;SDS011;1311;47.966;7.958;2023-03-15T14:23:28;1.00;;;0.77;;
2602;SDS011;1311;47.966;7.958;2023-03-15T14:25:59;0.87;;;0.53;;
2602;SDS011;1311;47.966;7.958;2023-03-15T14:28:36;0.97;;;0.77;;
2602;SDS011;1311;47.966;7.958;2023-03-15T14:31:04;1.10;;;0.70;;
2602;SDS011;1311;47.966;7.958;2023-03-15T14:33:32;0.70;;;0.70;;
2602;SDS011;1311;47.966;7.958;2023-03-15T14:36:04;3.60;;;0.83;;
2602;SDS011;1311;47.966;7.958;2023-03-15T14:38:33;2.50;;;0.80;;
2602;SDS011;1311;47.966;7.958;2023-03-15T14:43:57;1.07;;;0.77;;
2602;SDS011;1311;47.966;7.958;2023-03-15T14:46:24;1.57;;;1.03;;
2602;SDS011;1311;47.966;7.958;2023-03-15T14:48:52;3.00;;;0.80;;
2602;SDS011;1311;47.966;7.958;2023-03-15T14:51:20;0.90;;;0.60;;
2602;SDS011;1311;47.966;7.958;2023-03-15T14:53:49;1.13;;;0.60;;
2602;SDS011;1311;47.966;7.958;2023-03-15T14:56:18;0.90;;;0.73;;
2602;SDS011;1311;47.966;7.958;2023-03-15T14:58:45;2.83;;;0.90;;
2602;SDS011;1311;47.966;7.958;2023-03-15T15:01:14;0.50;;;0.50;;
2602;SDS011;1311;47.966;7.958;2023-03-15T15:03:44;1.30;;;0.67;;
2602;SDS011;1311;47.966;7.958;2023-03-15T15:06:13;7.27;;;1.10;;
2602;SDS011;1311;47.966;7.958;2023-03-15T15:08:42;2.03;;;0.80;;
2602;SDS011;1311;47.966;7.958;2023-03-15T15:11:11;1.00;;;0.60;;
2602;SDS011;1311;47.966;7.958;2023-03-15T15:13:38;0.60;;;0.53;;
2602;SDS011;1311;47.966;7.958;2023-03-15T15:16:06;3.77;;;0.60;;
2602;SDS011;1311;47.966;7.958;2023-03-15T15:18:34;0.70;;;0.70;;
2602;SDS011;1311;47.966;7.958;2023-03-15T15:21:02;1.70;;;0.87;;
2602;SDS011;1311;47.966;7.958;2023-03-15T15:23:37;1.90;;;0.83;;
2602;SDS011;1311;47.966;7.958;2023-03-15T15:26:16;2.20;;;1.20;;
2602;SDS011;1311;47.966;7.958;2023-03-15T15:28:44;0.93;;;0.60;;
2602;SDS011;1311;47.966;7.958;2023-03-15T15:31:13;2.20;;;0.90;;
2602;SDS011;1311;47.966;7.958;2023-03-15T15:33:41;1.33;;;0.73;;
2602;SDS011;1311;47.966;7.958;2023-03-15T15:36:10;1.10;;;0.60;;
2602;SDS011;1311;47.966;7.958;2023-03-15T15:38:39;1.53;;;0.60;;
2602;SDS011;1311;47.966;7.958;2023-03-15T15:41:11;0.97;;;0.80;;
2602;SDS011;1311;47.966;7.958;2023-03-15T15:43:39;2.10;;;0.70;;
2602;SDS011;1311;47.966;7.958;2023-03-15T15:46:07;1.00;;;0.80;;
2602;SDS011;1311;47.966;7.958;2023-03-15T15:48:36;1.10;;;0.60;;